createdAt,value
2017-06-09T00:00:42.960Z,12.67
2017-06-09T00:01:37.987Z,12.63
2017-06-09T00:02:38.018Z,12.57
2017-06-09T00:03:32.036Z,12.56
2017-06-09T00:04:32.092Z,12.50
2017-06-09T00:05:27.386Z,12.49
2017-06-09T00:06:22.192Z,12.50
2017-06-09T00:07:22.207Z,12.46
2017-06-09T00:08:17.260Z,12.43
2017-06-09T00:09:12.317Z,12.40
2017-06-09T00:10:12.341Z,12.34
2017-06-09T00:11:07.398Z,12.32
2017-06-09T00:12:02.376Z,12.30
2017-06-09T00:13:03.402Z,12.27
2017-06-09T00:14:03.452Z,12.28
2017-06-09T00:15:03.475Z,12.33
2017-06-09T00:15:58.669Z,12.34
2017-06-09T00:16:52.568Z,12.36
2017-06-09T00:17:46.603Z,12.42
2017-06-09T00:18:41.618Z,12.46
2017-06-09T00:19:41.674Z,12.44
2017-06-09T00:20:36.707Z,12.40
2017-06-09T00:21:31.765Z,12.42
2017-06-09T00:22:32.009Z,12.42
2017-06-09T00:23:26.798Z,12.40
2017-06-09T00:24:21.878Z,12.38
2017-06-09T00:25:22.901Z,12.39
2017-06-09T00:26:22.937Z,12.38
2017-06-09T00:27:22.988Z,12.34
2017-06-09T00:28:18.003Z,12.33
2017-06-09T00:29:12.069Z,12.31
2017-06-09T00:30:12.089Z,12.27
2017-06-09T00:31:07.154Z,12.26
2017-06-09T00:32:07.139Z,12.27
2017-06-09T00:33:01.165Z,12.23
2017-06-09T00:34:01.274Z,12.24
2017-06-09T00:34:56.281Z,12.22
2017-06-09T00:35:51.295Z,12.30
2017-06-09T00:36:51.357Z,12.27
2017-06-09T00:37:40.450Z,12.28
2017-06-09T00:38:28.397Z,12.26
2017-06-09T00:39:17.540Z,12.24
2017-06-09T00:40:05.514Z,12.23
2017-06-09T00:40:53.576Z,12.22
2017-06-09T00:41:42.598Z,12.16
2017-06-09T00:42:30.648Z,12.14
2017-06-09T00:43:24.687Z,12.16
2017-06-09T00:44:12.688Z,12.13
2017-06-09T00:45:01.779Z,12.13
2017-06-09T00:45:56.788Z,12.13
2017-06-09T00:46:56.875Z,12.10
2017-06-09T00:47:51.862Z,12.10
2017-06-09T00:48:57.891Z,12.06
2017-06-09T00:49:52.969Z,12.05
2017-06-09T00:50:47.002Z,12.03
2017-06-09T00:51:47.031Z,11.99
2017-06-09T00:52:47.095Z,11.95
2017-06-09T00:53:42.136Z,11.97
2017-06-09T00:54:36.155Z,11.96
2017-06-09T00:55:36.287Z,11.96
2017-06-09T00:56:31.379Z,11.98
2017-06-09T00:57:31.294Z,12.00
2017-06-09T00:58:25.275Z,11.96
2017-06-09T00:59:25.293Z,11.94
2017-06-09T01:00:20.373Z,11.94
2017-06-09T01:01:15.351Z,11.90
2017-06-09T01:02:15.682Z,11.87
2017-06-09T01:03:10.490Z,11.90
2017-06-09T01:04:05.525Z,11.88
2017-06-09T01:05:06.574Z,11.90
2017-06-09T01:06:06.686Z,11.88
2017-06-09T01:07:06.605Z,11.87
2017-06-09T01:08:01.934Z,11.86
2017-06-09T01:08:55.685Z,11.84
2017-06-09T01:09:55.697Z,11.88
2017-06-09T01:10:50.771Z,11.88
2017-06-09T01:11:56.790Z,11.93
2017-06-09T01:12:51.823Z,11.96
2017-06-09T01:13:46.181Z,11.99
2017-06-09T01:14:45.896Z,11.98
2017-06-09T01:15:46.037Z,11.99
2017-06-09T01:16:40.985Z,12.00
2017-06-09T01:17:34.988Z,12.00
2017-06-09T01:18:36.137Z,11.98
2017-06-09T01:19:25.378Z,12.06
2017-06-09T01:20:13.097Z,12.09
2017-06-09T01:21:07.175Z,12.17
2017-06-09T01:22:01.233Z,12.16
2017-06-09T01:22:50.279Z,12.16
2017-06-09T01:23:38.294Z,12.14
2017-06-09T01:24:26.608Z,12.16
2017-06-09T01:25:15.387Z,12.17
2017-06-09T01:26:15.497Z,12.18
2017-06-09T01:27:09.527Z,12.20
2017-06-09T01:28:09.489Z,12.20
2017-06-09T01:29:03.521Z,12.18
2017-06-09T01:30:04.023Z,12.16
2017-06-09T01:31:03.589Z,12.14
2017-06-09T01:31:58.603Z,12.12
2017-06-09T01:32:53.678Z,12.10
2017-06-09T01:33:54.696Z,12.10
2017-06-09T01:34:54.690Z,12.08
2017-06-09T01:35:55.303Z,12.08
2017-06-09T01:36:49.815Z,12.06
2017-06-09T01:37:43.877Z,12.05
2017-06-09T01:38:43.910Z,12.02
2017-06-09T01:39:38.906Z,12.04
2017-06-09T01:40:32.980Z,12.10
2017-06-09T01:41:21.423Z,12.08
2017-06-09T01:42:10.045Z,12.09
2017-06-09T01:42:58.098Z,12.10
2017-06-09T01:43:53.117Z,12.10
2017-06-09T01:44:53.170Z,12.06
2017-06-09T01:45:47.193Z,12.09
2017-06-09T01:46:47.795Z,12.08
2017-06-09T01:47:42.281Z,12.08
2017-06-09T01:48:37.297Z,12.08
2017-06-09T01:49:38.348Z,12.05
2017-06-09T01:50:39.646Z,12.11
2017-06-09T01:51:39.444Z,12.11
2017-06-09T01:52:39.773Z,12.12
2017-06-09T01:53:39.490Z,12.12
2017-06-09T01:54:40.534Z,12.10
2017-06-09T01:55:41.509Z,12.11
2017-06-09T01:56:35.572Z,12.09
2017-06-09T01:57:35.620Z,12.06
2017-06-09T01:58:30.974Z,12.04
2017-06-09T01:59:25.719Z,12.04
2017-06-09T02:00:25.708Z,12.05
2017-06-09T02:01:20.826Z,12.04
2017-06-09T02:02:15.764Z,12.02
2017-06-09T02:03:15.841Z,12.04
2017-06-09T02:04:11.124Z,11.99
2017-06-09T02:05:05.882Z,12.00
2017-06-09T02:06:07.128Z,11.96
2017-06-09T02:07:06.975Z,12.00
2017-06-09T02:08:07.010Z,12.02
2017-06-09T02:09:02.066Z,12.00
2017-06-09T02:09:51.126Z,12.04
2017-06-09T02:10:46.337Z,12.05
2017-06-09T02:11:47.177Z,12.04
2017-06-09T02:12:47.202Z,12.00
2017-06-09T02:13:42.192Z,12.02
2017-06-09T02:14:42.288Z,12.02
2017-06-09T02:15:36.329Z,12.03
2017-06-09T02:16:36.367Z,12.02
2017-06-09T02:17:30.370Z,12.03
2017-06-09T02:18:30.415Z,12.02
2017-06-09T02:19:24.507Z,12.06
2017-06-09T02:20:24.494Z,12.00
2017-06-09T02:21:24.664Z,11.96
2017-06-09T02:22:24.549Z,11.93
2017-06-09T02:23:24.605Z,11.92
2017-06-09T02:24:19.655Z,11.93
2017-06-09T02:25:19.716Z,11.93
2017-06-09T02:26:19.642Z,11.97
2017-06-09T02:27:25.717Z,11.92
2017-06-09T02:28:20.795Z,11.86
2017-06-09T02:29:20.792Z,11.82
2017-06-09T02:30:15.877Z,11.80
2017-06-09T02:31:15.875Z,11.82
2017-06-09T02:32:15.922Z,11.82
2017-06-09T02:33:16.066Z,11.79
2017-06-09T02:34:09.974Z,11.79
2017-06-09T02:35:10.021Z,11.78
2017-06-09T02:36:05.037Z,11.82
2017-06-09T02:37:00.080Z,11.79
2017-06-09T02:38:00.131Z,11.74
2017-06-09T02:38:55.357Z,11.78
2017-06-09T02:39:50.190Z,11.74
2017-06-09T02:40:51.220Z,11.75
2017-06-09T02:41:52.253Z,11.77
2017-06-09T02:42:52.297Z,11.75
2017-06-09T02:43:53.295Z,11.79
2017-06-09T02:44:47.409Z,11.80
2017-06-09T02:45:47.390Z,11.82
2017-06-09T02:46:42.485Z,11.80
2017-06-09T02:47:37.507Z,11.79
2017-06-09T02:48:37.490Z,11.78
2017-06-09T02:49:32.551Z,11.80
2017-06-09T02:50:27.798Z,11.77
2017-06-09T02:51:27.626Z,11.78
2017-06-09T02:52:22.659Z,11.78
2017-06-09T02:53:17.953Z,11.80
2017-06-09T02:54:18.707Z,11.82
2017-06-09T02:55:18.782Z,11.77
2017-06-09T02:56:18.868Z,11.77
2017-06-09T02:57:18.889Z,11.78
2017-06-09T02:58:18.871Z,11.76
2017-06-09T02:59:18.899Z,11.71
2017-06-09T03:00:18.896Z,11.74
2017-06-09T03:01:18.987Z,11.77
2017-06-09T03:02:18.986Z,11.73
2017-06-09T03:03:19.045Z,11.72
2017-06-09T03:04:19.089Z,11.72
2017-06-09T03:05:19.105Z,11.76
2017-06-09T03:06:19.133Z,11.74
2017-06-09T03:07:20.239Z,11.80
2017-06-09T03:08:15.193Z,11.81
2017-06-09T03:09:09.272Z,11.80
2017-06-09T03:10:10.294Z,11.81
2017-06-09T03:11:05.346Z,11.79
2017-06-09T03:12:05.381Z,11.74
2017-06-09T03:13:05.544Z,11.73
2017-06-09T03:14:05.454Z,11.76
2017-06-09T03:15:05.477Z,11.76
2017-06-09T03:16:05.492Z,11.73
2017-06-09T03:17:00.564Z,11.70
2017-06-09T03:18:00.569Z,11.66
2017-06-09T03:18:55.616Z,11.68
2017-06-09T03:19:49.606Z,11.70
2017-06-09T03:20:38.684Z,11.67
2017-06-09T03:21:39.716Z,11.67
2017-06-09T03:22:33.790Z,11.70
2017-06-09T03:23:33.816Z,11.66
2017-06-09T03:24:28.899Z,11.67
2017-06-09T03:25:23.914Z,11.70
2017-06-09T03:26:17.913Z,11.77
2017-06-09T03:27:17.975Z,11.78
2017-06-09T03:28:13.008Z,11.74
2017-06-09T03:29:07.059Z,11.72
2017-06-09T03:29:55.171Z,11.72
2017-06-09T03:30:44.124Z,11.66
2017-06-09T03:31:44.172Z,11.64
2017-06-09T03:32:44.207Z,11.68
2017-06-09T03:33:33.249Z,11.65
2017-06-09T03:34:27.297Z,11.63
2017-06-09T03:35:21.308Z,11.58
2017-06-09T03:36:16.386Z,11.59
2017-06-09T03:37:17.605Z,11.55
2017-06-09T03:38:17.410Z,11.56
2017-06-09T03:39:12.499Z,11.48
2017-06-09T03:40:08.082Z,11.42
2017-06-09T03:41:07.563Z,11.42
2017-06-09T03:42:02.619Z,11.40
2017-06-09T03:42:57.610Z,11.40
2017-06-09T03:43:51.698Z,11.45
2017-06-09T03:44:51.724Z,11.48
2017-06-09T03:45:46.726Z,11.45
2017-06-09T03:46:41.857Z,11.42
2017-06-09T03:47:41.788Z,11.50
2017-06-09T03:48:36.877Z,11.51
2017-06-09T03:49:31.899Z,11.50
2017-06-09T03:50:25.918Z,11.55
2017-06-09T03:51:25.961Z,11.54
2017-06-09T03:52:21.003Z,11.52
2017-06-09T03:53:21.013Z,11.50
2017-06-09T03:54:21.101Z,11.55
2017-06-09T03:55:21.114Z,11.54
2017-06-09T03:56:15.148Z,11.64
2017-06-09T03:57:15.504Z,11.66
2017-06-09T03:58:10.196Z,11.68
2017-06-09T03:59:05.256Z,11.61
2017-06-09T03:59:59.298Z,11.66
2017-06-09T04:00:59.304Z,11.75
2017-06-09T04:01:54.370Z,11.79
2017-06-09T04:02:49.425Z,11.81
2017-06-09T04:03:49.488Z,11.77
2017-06-09T04:04:44.478Z,11.80
2017-06-09T04:05:39.515Z,11.80
2017-06-09T04:06:33.551Z,11.78
2017-06-09T04:07:34.553Z,11.78
2017-06-09T04:08:29.631Z,11.83
2017-06-09T04:09:23.696Z,11.84
2017-06-09T04:10:12.701Z,11.90
2017-06-09T04:11:06.771Z,11.98
2017-06-09T04:12:01.790Z,12.03
2017-06-09T04:12:49.852Z,12.09
2017-06-09T04:13:43.886Z,12.08
2017-06-09T04:14:38.945Z,12.14
2017-06-09T04:15:27.984Z,12.19
2017-06-09T04:16:22.014Z,12.26
2017-06-09T04:17:22.047Z,12.38
2017-06-09T04:18:22.076Z,12.44
2017-06-09T04:19:22.099Z,12.43
2017-06-09T04:20:16.474Z,12.54
2017-06-09T04:21:16.464Z,12.59
2017-06-09T04:22:11.256Z,12.64
2017-06-09T04:23:06.302Z,12.74
2017-06-09T04:24:00.304Z,12.88
2017-06-09T04:25:01.367Z,13.00
2017-06-09T04:25:56.378Z,13.05
2017-06-09T04:26:56.418Z,13.25
2017-06-09T04:27:56.463Z,13.47
2017-06-09T04:28:56.502Z,13.72
2017-06-09T04:29:56.527Z,13.96
2017-06-09T04:30:56.573Z,14.38
2017-06-09T04:31:56.599Z,14.84
2017-06-09T04:32:51.773Z,15.18
2017-06-09T04:33:46.673Z,15.88
2017-06-09T04:34:41.697Z,16.44
2017-06-09T04:35:36.053Z,17.05
2017-06-09T04:36:35.887Z,17.60
2017-06-09T04:37:35.860Z,17.90
2017-06-09T04:38:36.095Z,18.07
2017-06-09T04:39:35.918Z,18.52
2017-06-09T04:40:36.255Z,18.43
2017-06-09T04:41:35.990Z,18.54
2017-06-09T04:42:31.063Z,18.56
2017-06-09T04:43:19.338Z,18.90
2017-06-09T04:44:13.132Z,19.11
2017-06-09T04:45:13.459Z,19.06
2017-06-09T04:46:07.200Z,19.01
2017-06-09T04:47:02.308Z,19.26
2017-06-09T04:47:57.323Z,19.24
2017-06-09T04:48:51.402Z,19.39
2017-06-09T04:49:46.460Z,19.49
2017-06-09T04:50:46.485Z,19.50
2017-06-09T04:51:35.537Z,19.26
2017-06-09T04:52:29.570Z,18.94
2017-06-09T04:53:30.681Z,18.44
2017-06-09T04:54:31.115Z,18.36
2017-06-09T04:55:25.692Z,18.14
2017-06-09T04:56:20.705Z,17.92
2017-06-09T04:57:20.779Z,17.69
2017-06-09T04:58:14.801Z,17.53
2017-06-09T04:59:09.866Z,17.47
2017-06-09T04:59:58.911Z,17.42
2017-06-09T05:00:52.974Z,17.38
2017-06-09T05:01:53.011Z,17.36
2017-06-09T05:02:41.110Z,17.48
2017-06-09T05:03:29.097Z,17.53
2017-06-09T05:04:17.122Z,17.80
2017-06-09T05:05:12.268Z,17.86
2017-06-09T05:06:07.277Z,18.06
2017-06-09T05:07:07.291Z,17.98
2017-06-09T05:07:56.372Z,17.93
2017-06-09T05:08:45.396Z,17.80
2017-06-09T05:09:40.428Z,17.64
2017-06-09T05:10:40.581Z,17.44
2017-06-09T05:11:35.516Z,17.31
2017-06-09T05:12:41.577Z,17.27
2017-06-09T05:13:35.612Z,17.12
2017-06-09T05:14:36.663Z,17.15
2017-06-09T05:15:36.993Z,17.20
2017-06-09T05:16:36.783Z,17.25
2017-06-09T05:17:31.819Z,17.42
2017-06-09T05:18:31.808Z,17.58
2017-06-09T05:19:32.053Z,17.74
2017-06-09T05:20:32.277Z,18.20
2017-06-09T05:21:32.053Z,18.73
2017-06-09T05:22:32.010Z,18.93
2017-06-09T05:23:32.029Z,19.25
2017-06-09T05:24:32.066Z,19.43
2017-06-09T05:25:38.303Z,20.15
2017-06-09T05:26:33.199Z,20.40
2017-06-09T05:27:27.225Z,20.60
2017-06-09T05:28:28.276Z,20.46
2017-06-09T05:29:22.316Z,20.72
2017-06-09T05:30:17.368Z,21.09
2017-06-09T05:31:17.406Z,21.12
2017-06-09T05:32:12.496Z,21.12
2017-06-09T05:33:07.514Z,21.19
2017-06-09T05:34:01.657Z,21.03
2017-06-09T05:35:01.586Z,20.35
2017-06-09T05:35:55.684Z,20.27
2017-06-09T05:36:55.716Z,20.18
2017-06-09T05:37:49.703Z,20.01
2017-06-09T05:38:49.815Z,19.96
2017-06-09T05:39:43.922Z,19.92
2017-06-09T05:40:49.892Z,19.63
2017-06-09T05:41:43.925Z,19.64
2017-06-09T05:42:49.978Z,19.32
2017-06-09T05:43:39.019Z,19.28
2017-06-09T05:44:28.073Z,19.20
2017-06-09T05:45:17.323Z,19.06
2017-06-09T05:46:06.251Z,19.04
2017-06-09T05:47:01.254Z,18.90
2017-06-09T05:48:01.304Z,18.92
2017-06-09T05:48:56.310Z,18.98
2017-06-09T05:49:56.386Z,18.99
2017-06-09T05:50:57.438Z,19.12
2017-06-09T05:51:51.474Z,19.09
2017-06-09T05:52:51.549Z,19.16
2017-06-09T05:53:46.529Z,19.34
2017-06-09T05:54:41.575Z,19.41
2017-06-09T05:55:35.975Z,19.38
2017-06-09T05:56:35.726Z,19.43
2017-06-09T05:57:29.820Z,19.46
2017-06-09T05:58:18.809Z,19.28
2017-06-09T05:59:06.838Z,19.21
2017-06-09T05:59:55.884Z,19.10
2017-06-09T06:00:44.029Z,19.00
2017-06-09T06:01:33.069Z,18.87
2017-06-09T06:02:33.100Z,18.61
2017-06-09T06:03:27.096Z,18.49
2017-06-09T06:04:22.118Z,18.43
2017-06-09T06:05:11.460Z,18.45
2017-06-09T06:06:11.235Z,18.45
2017-06-09T06:07:06.293Z,18.40
2017-06-09T06:08:01.316Z,18.31
2017-06-09T06:09:01.370Z,18.38
2017-06-09T06:09:56.467Z,18.34
2017-06-09T06:10:51.495Z,18.36
2017-06-09T06:11:45.493Z,18.48
2017-06-09T06:12:45.571Z,18.54
2017-06-09T06:13:40.629Z,18.55
2017-06-09T06:14:35.675Z,18.53
2017-06-09T06:15:36.022Z,18.70
2017-06-09T06:16:29.766Z,18.90
2017-06-09T06:17:29.812Z,18.96
2017-06-09T06:18:23.811Z,19.10
2017-06-09T06:19:11.949Z,18.92
2017-06-09T06:19:59.899Z,19.15
2017-06-09T06:20:49.045Z,19.41
2017-06-09T06:21:37.038Z,19.63
2017-06-09T06:22:37.101Z,19.52
2017-06-09T06:23:32.117Z,19.26
2017-06-09T06:24:32.214Z,19.14
2017-06-09T06:25:32.198Z,19.29
2017-06-09T06:26:38.273Z,19.13
2017-06-09T06:27:33.307Z,18.99
2017-06-09T06:28:27.375Z,18.95
2017-06-09T06:29:28.402Z,19.02
2017-06-09T06:30:23.651Z,19.00
2017-06-09T06:31:23.496Z,18.79
2017-06-09T06:32:23.618Z,18.93
2017-06-09T06:33:23.577Z,19.08
2017-06-09T06:34:23.597Z,19.26
2017-06-09T06:35:23.836Z,19.27
2017-06-09T06:36:23.701Z,19.36
2017-06-09T06:37:23.761Z,19.68
2017-06-09T06:38:29.799Z,19.95
2017-06-09T06:39:24.863Z,20.13
2017-06-09T06:40:18.922Z,20.36
2017-06-09T06:41:13.981Z,20.46
2017-06-09T06:42:20.158Z,20.72
2017-06-09T06:43:15.014Z,20.92
2017-06-09T06:44:09.089Z,20.97
2017-06-09T06:45:09.150Z,21.16
2017-06-09T06:46:03.370Z,21.40
2017-06-09T06:47:03.227Z,21.54
2017-06-09T06:47:58.308Z,21.62
2017-06-09T06:48:58.320Z,21.41
2017-06-09T06:49:52.368Z,21.28
2017-06-09T06:50:46.413Z,20.97
2017-06-09T06:51:46.468Z,20.76
2017-06-09T06:52:46.567Z,20.67
2017-06-09T06:53:40.561Z,20.53
2017-06-09T06:54:28.608Z,20.41
2017-06-09T06:55:22.621Z,20.40
2017-06-09T06:56:17.699Z,20.31
2017-06-09T06:57:12.051Z,20.12
2017-06-09T06:58:07.114Z,19.90
2017-06-09T06:59:06.857Z,19.80
2017-06-09T07:00:00.926Z,19.69
2017-06-09T07:00:54.912Z,19.55
2017-06-09T07:01:50.134Z,19.50
2017-06-09T07:02:45.118Z,19.37
2017-06-09T07:03:45.421Z,19.22
2017-06-09T07:04:40.177Z,19.16
2017-06-09T07:05:35.500Z,19.25
2017-06-09T07:06:24.237Z,19.17
2017-06-09T07:07:19.296Z,19.12
2017-06-09T07:08:19.331Z,19.12
2017-06-09T07:09:15.017Z,19.21
2017-06-09T07:10:09.473Z,19.16
2017-06-09T07:11:03.468Z,19.29
2017-06-09T07:12:03.520Z,19.40
2017-06-09T07:12:58.623Z,19.38
2017-06-09T07:13:58.616Z,19.78
2017-06-09T07:14:52.993Z,19.99
2017-06-09T07:15:46.680Z,20.08
2017-06-09T07:16:40.721Z,20.34
2017-06-09T07:17:29.809Z,20.44
2017-06-09T07:18:18.859Z,20.53
2017-06-09T07:19:06.918Z,20.69
2017-06-09T07:19:56.290Z,20.88
2017-06-09T07:20:50.026Z,21.31
2017-06-09T07:21:50.062Z,21.50
2017-06-09T07:22:50.126Z,21.60
2017-06-09T07:23:50.125Z,21.79
2017-06-09T07:24:50.218Z,22.03
2017-06-09T07:25:50.324Z,22.36
2017-06-09T07:26:50.447Z,22.55
2017-06-09T07:27:50.362Z,22.78
2017-06-09T07:28:50.412Z,22.94
2017-06-09T07:29:39.466Z,22.99
2017-06-09T07:30:28.504Z,22.97
2017-06-09T07:31:23.545Z,22.89
2017-06-09T07:32:18.659Z,22.74
2017-06-09T07:33:18.645Z,22.78
2017-06-09T07:34:12.715Z,22.58
2017-06-09T07:35:12.769Z,22.23
2017-06-09T07:36:06.820Z,21.78
2017-06-09T07:37:07.892Z,21.39
2017-06-09T07:38:01.924Z,21.42
2017-06-09T07:38:50.001Z,21.46
2017-06-09T07:39:39.038Z,21.46
2017-06-09T07:40:33.062Z,21.57
2017-06-09T07:41:27.103Z,21.59
2017-06-09T07:42:15.254Z,21.52
2017-06-09T07:43:09.212Z,21.52
2017-06-09T07:44:04.289Z,21.56
2017-06-09T07:45:04.347Z,21.44
2017-06-09T07:45:53.427Z,21.40
2017-06-09T07:46:47.477Z,21.34
2017-06-09T07:47:42.519Z,21.15
2017-06-09T07:48:37.559Z,21.06
2017-06-09T07:49:26.617Z,20.92
2017-06-09T07:50:15.733Z,20.73
2017-06-09T07:51:09.995Z,20.69
2017-06-09T07:51:58.774Z,20.67
2017-06-09T07:52:53.071Z,20.66
2017-06-09T07:53:41.862Z,20.66
2017-06-09T07:54:29.931Z,20.73
2017-06-09T07:55:23.984Z,20.78
2017-06-09T07:56:11.995Z,20.85
2017-06-09T07:57:06.086Z,20.86
2017-06-09T07:57:54.495Z,20.96
2017-06-09T07:58:49.184Z,21.12
2017-06-09T07:59:37.232Z,21.23
2017-06-09T08:00:25.306Z,21.39
2017-06-09T08:01:19.368Z,21.46
2017-06-09T08:02:07.415Z,21.57
2017-06-09T08:03:01.729Z,21.69
2017-06-09T08:03:56.490Z,21.64
2017-06-09T08:04:50.553Z,21.68
2017-06-09T08:05:38.930Z,21.72
2017-06-09T08:06:26.689Z,21.76
2017-06-09T08:07:15.704Z,21.80
2017-06-09T08:08:10.067Z,21.86
2017-06-09T08:08:57.857Z,21.90
2017-06-09T08:09:51.887Z,21.91
2017-06-09T08:10:41.281Z,21.94
2017-06-09T08:11:35.020Z,22.08
2017-06-09T08:12:29.066Z,22.12
2017-06-09T08:13:23.330Z,22.25
2017-06-09T08:14:17.146Z,22.40
2017-06-09T08:15:18.201Z,22.42
2017-06-09T08:16:18.264Z,22.50
2017-06-09T08:17:13.295Z,22.63
2017-06-09T08:18:08.371Z,22.69
2017-06-09T08:19:08.408Z,22.69
2017-06-09T08:20:03.452Z,22.71
2017-06-09T08:20:57.515Z,22.48
2017-06-09T08:21:51.565Z,22.46
2017-06-09T08:22:52.602Z,22.41
2017-06-09T08:23:47.628Z,22.43
2017-06-09T08:24:36.724Z,22.50
2017-06-09T08:25:30.781Z,22.55
2017-06-09T08:26:25.791Z,22.68
2017-06-09T08:27:20.890Z,22.64
2017-06-09T08:28:09.912Z,22.52
2017-06-09T08:29:03.989Z,22.54
2017-06-09T08:30:05.081Z,22.60
2017-06-09T08:31:06.084Z,22.64
2017-06-09T08:32:06.275Z,22.46
2017-06-09T08:33:06.253Z,22.40
2017-06-09T08:34:00.380Z,22.33
2017-06-09T08:34:54.306Z,22.23
2017-06-09T08:35:54.666Z,22.18
2017-06-09T08:36:48.400Z,22.16
2017-06-09T08:37:37.525Z,22.03
2017-06-09T08:38:37.516Z,21.96
2017-06-09T08:39:26.526Z,21.90
2017-06-09T08:40:20.601Z,21.83
2017-06-09T08:41:09.229Z,21.68
2017-06-09T08:42:02.707Z,21.65
2017-06-09T08:42:51.787Z,21.36
2017-06-09T08:43:45.815Z,21.27
2017-06-09T08:44:40.894Z,21.28
2017-06-09T08:45:34.966Z,21.39
2017-06-09T08:46:23.058Z,21.49
2017-06-09T08:47:17.194Z,21.54
2017-06-09T08:48:17.247Z,21.60
2017-06-09T08:49:11.187Z,21.57
2017-06-09T08:49:59.275Z,21.63
2017-06-09T08:50:54.265Z,21.84
2017-06-09T08:51:48.534Z,21.95
2017-06-09T08:52:42.402Z,22.02
2017-06-09T08:53:31.674Z,22.19
2017-06-09T08:54:31.668Z,22.22
2017-06-09T08:55:20.680Z,22.11
2017-06-09T08:56:20.838Z,21.95
2017-06-09T08:57:15.746Z,21.94
2017-06-09T08:58:10.808Z,22.04
2017-06-09T08:59:04.949Z,22.13
2017-06-09T09:00:05.021Z,22.08
2017-06-09T09:00:53.904Z,21.84
2017-06-09T09:01:48.997Z,21.72
2017-06-09T09:02:49.355Z,21.61
2017-06-09T09:03:44.237Z,21.57
2017-06-09T09:04:38.166Z,21.49
2017-06-09T09:05:38.461Z,21.20
2017-06-09T09:06:33.194Z,21.08
2017-06-09T09:07:28.266Z,20.96
2017-06-09T09:08:23.314Z,20.95
2017-06-09T09:09:11.377Z,20.84
2017-06-09T09:10:12.429Z,20.67
2017-06-09T09:11:06.573Z,20.81
2017-06-09T09:12:00.554Z,20.77
2017-06-09T09:12:55.600Z,20.66
2017-06-09T09:13:55.627Z,20.60
2017-06-09T09:14:50.704Z,20.58
2017-06-09T09:15:50.750Z,20.72
2017-06-09T09:16:39.795Z,20.63
2017-06-09T09:17:27.878Z,20.74
2017-06-09T09:18:27.911Z,20.76
2017-06-09T09:19:22.477Z,20.79
2017-06-09T09:20:22.003Z,20.69
2017-06-09T09:21:11.186Z,20.65
2017-06-09T09:22:05.124Z,20.70
2017-06-09T09:22:54.126Z,20.78
2017-06-09T09:23:49.214Z,20.98
2017-06-09T09:24:38.774Z,20.92
2017-06-09T09:25:33.302Z,20.76
2017-06-09T09:26:28.353Z,20.54
2017-06-09T09:27:17.406Z,20.45
2017-06-09T09:28:12.681Z,20.24
2017-06-09T09:29:01.527Z,20.07
2017-06-09T09:29:56.871Z,19.99
2017-06-09T09:30:51.630Z,19.81
2017-06-09T09:31:46.681Z,19.60
2017-06-09T09:32:35.708Z,19.79
2017-06-09T09:33:29.804Z,19.70
2017-06-09T09:34:24.834Z,19.83
2017-06-09T09:35:18.967Z,19.70
2017-06-09T09:36:13.110Z,19.65
2017-06-09T09:37:13.000Z,19.36
2017-06-09T09:38:07.007Z,19.38
2017-06-09T09:39:07.063Z,19.42
2017-06-09T09:39:56.169Z,19.35
2017-06-09T09:40:45.144Z,19.31
2017-06-09T09:41:39.209Z,19.25
2017-06-09T09:42:34.292Z,19.13
2017-06-09T09:43:28.306Z,19.25
2017-06-09T09:44:23.386Z,19.19
2017-06-09T09:45:12.477Z,18.92
2017-06-09T09:46:07.521Z,18.92
2017-06-09T09:47:02.525Z,18.84
2017-06-09T09:47:56.613Z,18.86
2017-06-09T09:48:50.649Z,18.70
2017-06-09T09:49:45.722Z,18.78
2017-06-09T09:50:45.686Z,18.77
2017-06-09T09:51:40.954Z,18.74
2017-06-09T09:52:29.824Z,18.75
2017-06-09T09:53:18.875Z,18.76
2017-06-09T09:54:13.920Z,18.74
2017-06-09T09:55:08.989Z,18.66
2017-06-09T09:55:57.998Z,18.59
2017-06-09T09:56:52.373Z,18.80
2017-06-09T09:57:41.177Z,18.64
2017-06-09T09:58:41.386Z,18.65
2017-06-09T09:59:35.216Z,18.51
2017-06-09T10:00:35.274Z,18.65
2017-06-09T10:01:30.296Z,18.38
2017-06-09T10:02:19.662Z,18.38
2017-06-09T10:03:08.439Z,18.43
2017-06-09T10:03:56.483Z,18.30
2017-06-09T10:04:51.500Z,18.11
2017-06-09T10:05:46.581Z,18.10
2017-06-09T10:06:35.605Z,18.00
2017-06-09T10:07:30.067Z,17.96
2017-06-09T10:08:23.706Z,17.53
2017-06-09T10:09:17.768Z,17.20
2017-06-09T10:10:17.805Z,17.00
2017-06-09T10:11:06.875Z,16.64
2017-06-09T10:11:55.898Z,16.35
2017-06-09T10:12:50.259Z,16.36
2017-06-09T10:13:44.020Z,15.98
2017-06-09T10:14:39.072Z,15.82
2017-06-09T10:15:33.077Z,15.70
2017-06-09T10:16:27.106Z,15.51
2017-06-09T10:17:16.226Z,15.44
2017-06-09T10:18:10.288Z,15.28
2017-06-09T10:18:59.303Z,15.21
2017-06-09T10:19:53.508Z,15.23
2017-06-09T10:20:48.365Z,15.16
2017-06-09T10:21:43.420Z,15.16
2017-06-09T10:22:37.489Z,15.22
2017-06-09T10:23:31.666Z,15.25
2017-06-09T10:24:31.563Z,15.38
2017-06-09T10:25:25.633Z,15.38
2017-06-09T10:26:19.688Z,15.37
2017-06-09T10:27:19.738Z,15.31
2017-06-09T10:28:14.754Z,15.19
2017-06-09T10:29:02.830Z,15.07
2017-06-09T10:29:57.873Z,15.00
2017-06-09T10:30:46.889Z,14.87
2017-06-09T10:31:34.977Z,14.79
2017-06-09T10:32:29.013Z,14.69
2017-06-09T10:33:23.058Z,14.67
2017-06-09T10:34:17.067Z,14.70
2017-06-09T10:35:17.140Z,14.62
2017-06-09T10:36:11.240Z,14.50
2017-06-09T10:37:00.208Z,14.38
2017-06-09T10:37:48.276Z,14.36
2017-06-09T10:38:37.293Z,14.38
2017-06-09T10:39:31.397Z,14.48
2017-06-09T10:40:19.412Z,14.55
2017-06-09T10:41:19.505Z,14.57
2017-06-09T10:42:14.493Z,14.50
2017-06-09T10:43:08.533Z,14.47
2017-06-09T10:43:57.621Z,14.50
2017-06-09T10:44:51.962Z,14.52
2017-06-09T10:45:46.681Z,14.59
2017-06-09T10:46:34.718Z,14.64
2017-06-09T10:47:28.798Z,14.51
2017-06-09T10:48:23.801Z,14.23
2017-06-09T10:49:18.884Z,14.24
2017-06-09T10:50:13.184Z,14.20
2017-06-09T10:51:01.966Z,14.11
2017-06-09T10:51:55.974Z,14.19
2017-06-09T10:52:45.007Z,14.24
2017-06-09T10:53:39.110Z,14.26
2017-06-09T10:54:33.139Z,14.32
2017-06-09T10:55:33.574Z,14.21
2017-06-09T10:56:27.224Z,14.16
2017-06-09T10:57:21.292Z,14.06
2017-06-09T10:58:21.299Z,14.15
2017-06-09T10:59:21.337Z,14.29
2017-06-09T11:00:15.388Z,14.28
2017-06-09T11:01:05.034Z,14.11
2017-06-09T11:02:04.492Z,14.08
2017-06-09T11:02:58.494Z,14.17
2017-06-09T11:03:52.587Z,14.22
2017-06-09T11:04:47.597Z,14.28
2017-06-09T11:05:36.625Z,14.32
2017-06-09T11:06:26.003Z,14.34
2017-06-09T11:07:14.754Z,14.38
2017-06-09T11:08:14.794Z,14.35
2017-06-09T11:09:08.806Z,14.31
2017-06-09T11:09:56.875Z,14.37
2017-06-09T11:10:45.844Z,14.37
2017-06-09T11:11:34.007Z,14.46
2017-06-09T11:12:23.041Z,14.50
2017-06-09T11:13:11.048Z,14.46
2017-06-09T11:13:59.090Z,14.54
2017-06-09T11:14:59.163Z,14.54
2017-06-09T11:15:53.180Z,14.54
2017-06-09T11:16:47.205Z,14.51
2017-06-09T11:17:47.277Z,14.51
2017-06-09T11:18:36.289Z,14.48
2017-06-09T11:19:30.366Z,14.33
2017-06-09T11:20:19.392Z,14.27
2017-06-09T11:21:13.494Z,14.32
2017-06-09T11:22:01.914Z,14.30
2017-06-09T11:22:49.528Z,14.24
2017-06-09T11:23:43.578Z,14.28
2017-06-09T11:24:37.616Z,14.41
2017-06-09T11:25:25.694Z,14.41
2017-06-09T11:26:14.732Z,14.53
2017-06-09T11:27:09.266Z,14.61
2017-06-09T11:28:03.787Z,14.64
2017-06-09T11:28:57.872Z,14.60
2017-06-09T11:29:52.892Z,14.52
2017-06-09T11:30:47.194Z,14.44
2017-06-09T11:31:35.002Z,14.49
2017-06-09T11:32:36.395Z,14.44
2017-06-09T11:33:30.074Z,14.52
2017-06-09T11:34:24.106Z,14.50
2017-06-09T11:35:24.116Z,14.58
2017-06-09T11:36:19.175Z,14.54
2017-06-09T11:37:19.201Z,14.50
2017-06-09T11:38:08.250Z,14.49
2017-06-09T11:39:02.283Z,14.49
2017-06-09T11:39:56.374Z,14.50
2017-06-09T11:40:45.332Z,14.49
2017-06-09T11:41:33.438Z,14.46
2017-06-09T11:42:33.475Z,14.53
2017-06-09T11:43:33.590Z,14.50
2017-06-09T11:44:34.549Z,14.58
2017-06-09T11:45:23.590Z,14.61
2017-06-09T11:46:18.653Z,14.68
2017-06-09T11:47:12.684Z,14.62
2017-06-09T11:48:12.802Z,14.78
2017-06-09T11:49:06.783Z,14.84
2017-06-09T11:50:06.787Z,14.68
2017-06-09T11:50:55.817Z,14.78
2017-06-09T11:51:50.914Z,14.91
2017-06-09T11:52:45.951Z,14.82
2017-06-09T11:53:46.001Z,14.88